sensor_id;sensor_type;location;lat;lon;timestamp;P1;durP1;ratioP1;P2;durP2;ratioP2
55065;SDS011;40964;42.114;24.220;2023-08-20T00:00:09;10.10;;;5.50;;
55065;SDS011;40964;42.114;24.220;2023-08-20T00:02:35;6.55;;;4.82;;
55065;SDS011;40964;42.114;24.220;2023-08-20T00:05:03;6.10;;;4.57;;
55065;SDS011;40964;42.114;24.220;2023-08-20T00:07:30;9.05;;;4.82;;
55065;SDS011;40964;42.114;24.220;2023-08-20T00:09:56;8.57;;;5.13;;
55065;SDS011;40964;42.114;24.220;2023-08-20T00:12:21;7.45;;;4.75;;
55065;SDS011;40964;42.114;24.220;2023-08-20T00:14:54;7.18;;;4.78;;
55065;SDS011;40964;42.114;24.220;2023-08-20T00:17:29;6.72;;;5.22;;
55065;SDS011;40964;42.114;24.220;2023-08-20T00:19:54;7.40;;;4.80;;
55065;SDS011;40964;42.114;24.220;2023-08-20T00:22:23;7.65;;;5.10;;
55065;SDS011;40964;42.114;24.220;2023-08-20T00:24:50;11.05;;;5.45;;
55065;SDS011;40964;42.114;24.220;2023-08-20T00:27:17;8.38;;;5.18;;
55065;SDS011;40964;42.114;24.220;2023-08-20T00:29:43;9.55;;;5.22;;
55065;SDS011;40964;42.114;24.220;2023-08-20T00:32:08;14.80;;;5.10;;
55065;SDS011;40964;42.114;24.220;2023-08-20T00:34:34;8.77;;;5.50;;
55065;SDS011;40964;42.114;24.220;2023-08-20T00:37:00;7.18;;;5.03;;
55065;SDS011;40964;42.114;24.220;2023-08-20T00:39:26;14.18;;;5.28;;
55065;SDS011;40964;42.114;24.220;2023-08-20T00:41:52;8.93;;;5.63;;
55065;SDS011;40964;42.114;24.220;2023-08-20T00:46:52;9.27;;;4.95;;
55065;SDS011;40964;42.114;24.220;2023-08-20T00:49:18;7.93;;;4.60;;
55065;SDS011;40964;42.114;24.220;2023-08-20T00:51:43;8.57;;;5.35;;
55065;SDS011;40964;42.114;24.220;2023-08-20T00:54:10;8.25;;;4.95;;
55065;SDS011;40964;42.114;24.220;2023-08-20T00:56:36;9.77;;;4.93;;
55065;SDS011;40964;42.114;24.220;2023-08-20T00:59:03;7.03;;;4.95;;
55065;SDS011;40964;42.114;24.220;2023-08-20T01:01:29;9.13;;;5.00;;
55065;SDS011;40964;42.114;24.220;2023-08-20T01:03:54;11.05;;;4.50;;
55065;SDS011;40964;42.114;24.220;2023-08-20T01:06:21;9.32;;;4.88;;
55065;SDS011;40964;42.114;24.220;2023-08-20T01:12:10;9.65;;;5.60;;
55065;SDS011;40964;42.114;24.220;2023-08-20T01:14:35;11.90;;;5.05;;
55065;SDS011;40964;42.114;24.220;2023-08-20T01:17:01;5.85;;;4.53;;
55065;SDS011;40964;42.114;24.220;2023-08-20T01:19:27;7.30;;;4.85;;
55065;SDS011;40964;42.114;24.220;2023-08-20T01:24:55;8.30;;;4.90;;
55065;SDS011;40964;42.114;24.220;2023-08-20T01:27:55;9.07;;;4.55;;
55065;SDS011;40964;42.114;24.220;2023-08-20T01:30:28;6.40;;;4.05;;
55065;SDS011;40964;42.114;24.220;2023-08-20T01:32:55;6.78;;;4.38;;
55065;SDS011;40964;42.114;24.220;2023-08-20T01:35:23;8.05;;;4.28;;
55065;SDS011;40964;42.114;24.220;2023-08-20T01:37:51;8.00;;;5.18;;
55065;SDS011;40964;42.114;24.220;2023-08-20T01:40:17;7.78;;;5.07;;
55065;SDS011;40964;42.114;24.220;2023-08-20T01:42:42;6.95;;;4.65;;
55065;SDS011;40964;42.114;24.220;2023-08-20T01:45:08;7.85;;;5.40;;
55065;SDS011;40964;42.114;24.220;2023-08-20T01:47:34;7.20;;;4.88;;
55065;SDS011;40964;42.114;24.220;2023-08-20T01:49:59;9.20;;;5.10;;
55065;SDS011;40964;42.114;24.220;2023-08-20T01:52:25;7.72;;;4.82;;
55065;SDS011;40964;42.114;24.220;2023-08-20T01:54:51;7.13;;;4.90;;
55065;SDS011;40964;42.114;24.220;2023-08-20T01:57:17;6.90;;;4.43;;
55065;SDS011;40964;42.114;24.220;2023-08-20T01:59:43;6.95;;;4.65;;
55065;SDS011;40964;42.114;24.220;2023-08-20T02:02:08;7.45;;;4.35;;
55065;SDS011;40964;42.114;24.220;2023-08-20T02:04:33;8.50;;;5.28;;
55065;SDS011;40964;42.114;24.220;2023-08-20T02:06:59;7.10;;;4.85;;
55065;SDS011;40964;42.114;24.220;2023-08-20T02:09:25;7.72;;;4.55;;
55065;SDS011;40964;42.114;24.220;2023-08-20T02:11:51;7.13;;;4.57;;
55065;SDS011;40964;42.114;24.220;2023-08-20T02:14:16;8.63;;;4.60;;
55065;SDS011;40964;42.114;24.220;2023-08-20T02:16:42;6.97;;;4.65;;
55065;SDS011;40964;42.114;24.220;2023-08-20T02:19:08;10.18;;;5.22;;
55065;SDS011;40964;42.114;24.220;2023-08-20T02:21:34;8.95;;;4.45;;
55065;SDS011;40964;42.114;24.220;2023-08-20T02:23:59;7.40;;;4.68;;
55065;SDS011;40964;42.114;24.220;2023-08-20T02:26:25;7.95;;;4.72;;
55065;SDS011;40964;42.114;24.220;2023-08-20T02:28:50;8.65;;;4.80;;
55065;SDS011;40964;42.114;24.220;2023-08-20T02:31:16;6.78;;;4.80;;
55065;SDS011;40964;42.114;24.220;2023-08-20T02:33:41;9.50;;;5.22;;
55065;SDS011;40964;42.114;24.220;2023-08-20T02:36:06;11.07;;;4.85;;
55065;SDS011;40964;42.114;24.220;2023-08-20T02:38:32;7.85;;;4.47;;
55065;SDS011;40964;42.114;24.220;2023-08-20T02:40:57;8.07;;;4.63;;
55065;SDS011;40964;42.114;24.220;2023-08-20T02:43:23;8.57;;;4.80;;
55065;SDS011;40964;42.114;24.220;2023-08-20T02:45:48;7.93;;;4.57;;
55065;SDS011;40964;42.114;24.220;2023-08-20T02:48:14;8.63;;;5.00;;
55065;SDS011;40964;42.114;24.220;2023-08-20T02:50:40;10.32;;;4.47;;
55065;SDS011;40964;42.114;24.220;2023-08-20T02:53:05;7.80;;;4.82;;
55065;SDS011;40964;42.114;24.220;2023-08-20T02:55:31;7.07;;;4.90;;
55065;SDS011;40964;42.114;24.220;2023-08-20T02:57:57;7.43;;;4.30;;
55065;SDS011;40964;42.114;24.220;2023-08-20T03:00:23;6.45;;;4.20;;
55065;SDS011;40964;42.114;24.220;2023-08-20T03:02:48;8.27;;;4.93;;
55065;SDS011;40964;42.114;24.220;2023-08-20T03:05:14;8.52;;;4.53;;
55065;SDS011;40964;42.114;24.220;2023-08-20T03:07:39;9.02;;;4.63;;
55065;SDS011;40964;42.114;24.220;2023-08-20T03:10:05;6.47;;;4.22;;
55065;SDS011;40964;42.114;24.220;2023-08-20T03:12:31;9.98;;;4.55;;
55065;SDS011;40964;42.114;24.220;2023-08-20T03:14:57;8.52;;;4.65;;
55065;SDS011;40964;42.114;24.220;2023-08-20T03:17:25;10.02;;;5.03;;
55065;SDS011;40964;42.114;24.220;2023-08-20T03:19:58;5.75;;;4.05;;
55065;SDS011;40964;42.114;24.220;2023-08-20T03:22:25;6.30;;;4.63;;
55065;SDS011;40964;42.114;24.220;2023-08-20T03:24:51;6.97;;;4.07;;
55065;SDS011;40964;42.114;24.220;2023-08-20T03:27:17;8.95;;;4.35;;
55065;SDS011;40964;42.114;24.220;2023-08-20T03:29:43;5.88;;;3.88;;
55065;SDS011;40964;42.114;24.220;2023-08-20T03:32:09;9.52;;;4.53;;
55065;SDS011;40964;42.114;24.220;2023-08-20T03:34:35;7.82;;;4.75;;
55065;SDS011;40964;42.114;24.220;2023-08-20T03:37:01;8.90;;;4.70;;
55065;SDS011;40964;42.114;24.220;2023-08-20T03:39:27;8.43;;;4.22;;
55065;SDS011;40964;42.114;24.220;2023-08-20T03:41:53;7.47;;;4.05;;
55065;SDS011;40964;42.114;24.220;2023-08-20T03:46:55;6.40;;;4.35;;
55065;SDS011;40964;42.114;24.220;2023-08-20T03:49:21;11.13;;;4.47;;
55065;SDS011;40964;42.114;24.220;2023-08-20T03:51:47;5.93;;;4.32;;
55065;SDS011;40964;42.114;24.220;2023-08-20T03:54:12;11.57;;;4.32;;
55065;SDS011;40964;42.114;24.220;2023-08-20T03:56:38;9.20;;;5.03;;
55065;SDS011;40964;42.114;24.220;2023-08-20T03:59:03;9.55;;;4.80;;
55065;SDS011;40964;42.114;24.220;2023-08-20T04:01:29;7.95;;;5.03;;
55065;SDS011;40964;42.114;24.220;2023-08-20T04:03:54;10.27;;;5.15;;
55065;SDS011;40964;42.114;24.220;2023-08-20T04:06:19;10.98;;;4.82;;
55065;SDS011;40964;42.114;24.220;2023-08-20T04:08:45;6.80;;;4.40;;
55065;SDS011;40964;42.114;24.220;2023-08-20T04:11:10;7.05;;;4.70;;
55065;SDS011;40964;42.114;24.220;2023-08-20T04:13:36;10.95;;;5.00;;
55065;SDS011;40964;42.114;24.220;2023-08-20T04:16:02;8.98;;;4.80;;
55065;SDS011;40964;42.114;24.220;2023-08-20T04:18:28;6.32;;;4.38;;
55065;SDS011;40964;42.114;24.220;2023-08-20T04:20:53;9.70;;;5.65;;
55065;SDS011;40964;42.114;24.220;2023-08-20T04:23:20;8.75;;;5.20;;
55065;SDS011;40964;42.114;24.220;2023-08-20T04:25:46;10.65;;;5.40;;
55065;SDS011;40964;42.114;24.220;2023-08-20T04:28:12;6.82;;;5.07;;
55065;SDS011;40964;42.114;24.220;2023-08-20T04:30:37;8.85;;;5.45;;
55065;SDS011;40964;42.114;24.220;2023-08-20T04:33:03;8.52;;;5.05;;
55065;SDS011;40964;42.114;24.220;2023-08-20T04:35:29;10.82;;;5.50;;
55065;SDS011;40964;42.114;24.220;2023-08-20T04:37:54;7.97;;;5.28;;
55065;SDS011;40964;42.114;24.220;2023-08-20T04:40:20;9.63;;;5.40;;
55065;SDS011;40964;42.114;24.220;2023-08-20T04:42:45;11.70;;;4.97;;
55065;SDS011;40964;42.114;24.220;2023-08-20T04:45:11;7.60;;;5.00;;
55065;SDS011;40964;42.114;24.220;2023-08-20T04:47:37;10.32;;;5.68;;
55065;SDS011;40964;42.114;24.220;2023-08-20T04:50:03;8.48;;;4.97;;
55065;SDS011;40964;42.114;24.220;2023-08-20T04:52:31;7.13;;;4.97;;
55065;SDS011;40964;42.114;24.220;2023-08-20T04:54:57;9.60;;;4.97;;
55065;SDS011;40964;42.114;24.220;2023-08-20T04:57:22;9.95;;;5.13;;
55065;SDS011;40964;42.114;24.220;2023-08-20T04:59:48;9.00;;;5.72;;
55065;SDS011;40964;42.114;24.220;2023-08-20T05:02:13;9.07;;;5.32;;
55065;SDS011;40964;42.114;24.220;2023-08-20T05:04:39;8.23;;;5.10;;
55065;SDS011;40964;42.114;24.220;2023-08-20T05:07:05;7.93;;;4.72;;
55065;SDS011;40964;42.114;24.220;2023-08-20T05:09:31;9.18;;;4.85;;
55065;SDS011;40964;42.114;24.220;2023-08-20T05:11:57;11.23;;;6.05;;
55065;SDS011;40964;42.114;24.220;2023-08-20T05:14:23;12.65;;;5.22;;
55065;SDS011;40964;42.114;24.220;2023-08-20T05:16:48;8.88;;;5.25;;
55065;SDS011;40964;42.114;24.220;2023-08-20T05:19:14;9.50;;;5.15;;
55065;SDS011;40964;42.114;24.220;2023-08-20T05:21:39;7.88;;;5.07;;
55065;SDS011;40964;42.114;24.220;2023-08-20T05:24:04;8.27;;;4.90;;
55065;SDS011;40964;42.114;24.220;2023-08-20T05:26:30;10.02;;;5.03;;
55065;SDS011;40964;42.114;24.220;2023-08-20T05:28:56;8.57;;;5.53;;
55065;SDS011;40964;42.114;24.220;2023-08-20T05:31:21;11.85;;;5.57;;
55065;SDS011;40964;42.114;24.220;2023-08-20T05:33:46;10.02;;;5.50;;
55065;SDS011;40964;42.114;24.220;2023-08-20T05:36:12;9.65;;;5.35;;
55065;SDS011;40964;42.114;24.220;2023-08-20T05:38:38;9.05;;;5.70;;
55065;SDS011;40964;42.114;24.220;2023-08-20T05:41:04;9.98;;;5.60;;
55065;SDS011;40964;42.114;24.220;2023-08-20T05:43:29;9.45;;;5.13;;
55065;SDS011;40964;42.114;24.220;2023-08-20T05:45:55;9.73;;;5.32;;
55065;SDS011;40964;42.114;24.220;2023-08-20T05:48:20;8.52;;;5.70;;
55065;SDS011;40964;42.114;24.220;2023-08-20T05:50:46;10.32;;;5.88;;
55065;SDS011;40964;42.114;24.220;2023-08-20T05:53:11;9.40;;;5.68;;
55065;SDS011;40964;42.114;24.220;2023-08-20T05:55:37;11.13;;;5.20;;
55065;SDS011;40964;42.114;24.220;2023-08-20T05:58:04;10.02;;;6.00;;
55065;SDS011;40964;42.114;24.220;2023-08-20T06:00:29;9.93;;;6.10;;
55065;SDS011;40964;42.114;24.220;2023-08-20T06:02:55;10.75;;;5.55;;
55065;SDS011;40964;42.114;24.220;2023-08-20T06:05:20;8.32;;;5.10;;
55065;SDS011;40964;42.114;24.220;2023-08-20T06:07:46;11.32;;;5.55;;
55065;SDS011;40964;42.114;24.220;2023-08-20T06:10:11;8.60;;;5.47;;
55065;SDS011;40964;42.114;24.220;2023-08-20T06:12:37;11.10;;;5.53;;
55065;SDS011;40964;42.114;24.220;2023-08-20T06:15:02;8.50;;;5.40;;
55065;SDS011;40964;42.114;24.220;2023-08-20T06:17:29;8.98;;;6.00;;
55065;SDS011;40964;42.114;24.220;2023-08-20T06:19:54;13.15;;;5.35;;
55065;SDS011;40964;42.114;24.220;2023-08-20T06:22:19;13.82;;;5.43;;
55065;SDS011;40964;42.114;24.220;2023-08-20T06:24:45;10.00;;;5.88;;
55065;SDS011;40964;42.114;24.220;2023-08-20T06:27:10;8.50;;;5.43;;
55065;SDS011;40964;42.114;24.220;2023-08-20T06:29:36;9.07;;;5.78;;
55065;SDS011;40964;42.114;24.220;2023-08-20T06:32:02;9.27;;;5.90;;
55065;SDS011;40964;42.114;24.220;2023-08-20T06:34:28;11.23;;;5.35;;
55065;SDS011;40964;42.114;24.220;2023-08-20T06:36:53;9.50;;;5.63;;
55065;SDS011;40964;42.114;24.220;2023-08-20T06:39:19;12.13;;;5.20;;
55065;SDS011;40964;42.114;24.220;2023-08-20T06:41:45;9.95;;;5.32;;
55065;SDS011;40964;42.114;24.220;2023-08-20T06:44:10;7.15;;;5.65;;
55065;SDS011;40964;42.114;24.220;2023-08-20T06:46:36;8.65;;;5.40;;
55065;SDS011;40964;42.114;24.220;2023-08-20T06:49:02;11.00;;;5.05;;
55065;SDS011;40964;42.114;24.220;2023-08-20T06:51:28;10.20;;;5.55;;
55065;SDS011;40964;42.114;24.220;2023-08-20T06:53:53;8.80;;;5.43;;
55065;SDS011;40964;42.114;24.220;2023-08-20T06:56:20;9.40;;;5.75;;
55065;SDS011;40964;42.114;24.220;2023-08-20T06:58:45;8.38;;;5.35;;
55065;SDS011;40964;42.114;24.220;2023-08-20T07:01:11;12.25;;;5.40;;
55065;SDS011;40964;42.114;24.220;2023-08-20T07:03:39;8.63;;;5.40;;
55065;SDS011;40964;42.114;24.220;2023-08-20T07:06:06;9.65;;;5.75;;
55065;SDS011;40964;42.114;24.220;2023-08-20T07:08:32;8.68;;;5.57;;
55065;SDS011;40964;42.114;24.220;2023-08-20T07:10:58;11.40;;;5.70;;
55065;SDS011;40964;42.114;24.220;2023-08-20T07:13:24;7.80;;;5.53;;
55065;SDS011;40964;42.114;24.220;2023-08-20T07:15:50;7.72;;;5.43;;
55065;SDS011;40964;42.114;24.220;2023-08-20T07:18:16;9.45;;;5.72;;
55065;SDS011;40964;42.114;24.220;2023-08-20T07:20:42;10.15;;;6.07;;
55065;SDS011;40964;42.114;24.220;2023-08-20T07:23:08;10.88;;;6.13;;
55065;SDS011;40964;42.114;24.220;2023-08-20T07:25:37;8.57;;;5.40;;
55065;SDS011;40964;42.114;24.220;2023-08-20T07:28:04;9.00;;;6.30;;
55065;SDS011;40964;42.114;24.220;2023-08-20T07:30:30;9.13;;;6.30;;
55065;SDS011;40964;42.114;24.220;2023-08-20T07:32:56;7.63;;;6.00;;
55065;SDS011;40964;42.114;24.220;2023-08-20T07:35:21;9.63;;;5.70;;
55065;SDS011;40964;42.114;24.220;2023-08-20T07:37:47;12.13;;;5.78;;
55065;SDS011;40964;42.114;24.220;2023-08-20T07:40:13;11.25;;;6.53;;
55065;SDS011;40964;42.114;24.220;2023-08-20T07:42:39;8.52;;;6.30;;
55065;SDS011;40964;42.114;24.220;2023-08-20T07:45:06;9.88;;;6.20;;
55065;SDS011;40964;42.114;24.220;2023-08-20T07:47:32;9.48;;;5.93;;
55065;SDS011;40964;42.114;24.220;2023-08-20T07:49:58;8.95;;;5.80;;
55065;SDS011;40964;42.114;24.220;2023-08-20T07:52:23;7.70;;;6.13;;
55065;SDS011;40964;42.114;24.220;2023-08-20T07:54:49;8.02;;;5.57;;
55065;SDS011;40964;42.114;24.220;2023-08-20T07:57:14;11.43;;;5.93;;
55065;SDS011;40964;42.114;24.220;2023-08-20T07:59:40;8.55;;;6.18;;
55065;SDS011;40964;42.114;24.220;2023-08-20T08:02:05;11.27;;;6.88;;
55065;SDS011;40964;42.114;24.220;2023-08-20T08:04:31;7.80;;;5.63;;
55065;SDS011;40964;42.114;24.220;2023-08-20T08:06:56;10.25;;;5.90;;
55065;SDS011;40964;42.114;24.220;2023-08-20T08:09:29;8.73;;;5.97;;
55065;SDS011;40964;42.114;24.220;2023-08-20T08:11:56;10.43;;;6.20;;
55065;SDS011;40964;42.114;24.220;2023-08-20T08:14:23;8.05;;;6.05;;
55065;SDS011;40964;42.114;24.220;2023-08-20T08:16:48;8.35;;;6.22;;
55065;SDS011;40964;42.114;24.220;2023-08-20T08:19:15;8.77;;;5.93;;
55065;SDS011;40964;42.114;24.220;2023-08-20T08:21:41;9.57;;;6.38;;
55065;SDS011;40964;42.114;24.220;2023-08-20T08:24:08;10.68;;;6.40;;
55065;SDS011;40964;42.114;24.220;2023-08-20T08:26:34;9.02;;;6.53;;
55065;SDS011;40964;42.114;24.220;2023-08-20T08:29:03;9.63;;;6.00;;
55065;SDS011;40964;42.114;24.220;2023-08-20T08:31:29;8.15;;;5.53;;
55065;SDS011;40964;42.114;24.220;2023-08-20T08:33:54;8.32;;;5.47;;
55065;SDS011;40964;42.114;24.220;2023-08-20T08:36:20;9.55;;;6.32;;
55065;SDS011;40964;42.114;24.220;2023-08-20T08:38:46;9.30;;;5.65;;
55065;SDS011;40964;42.114;24.220;2023-08-20T08:41:11;10.55;;;6.07;;
55065;SDS011;40964;42.114;24.220;2023-08-20T08:43:38;7.22;;;6.20;;
55065;SDS011;40964;42.114;24.220;2023-08-20T08:46:14;7.80;;;6.18;;
55065;SDS011;40964;42.114;24.220;2023-08-20T08:48:41;8.00;;;5.90;;
55065;SDS011;40964;42.114;24.220;2023-08-20T08:51:11;8.65;;;6.05;;
55065;SDS011;40964;42.114;24.220;2023-08-20T08:53:37;8.15;;;5.57;;
55065;SDS011;40964;42.114;24.220;2023-08-20T08:56:03;8.77;;;6.40;;
55065;SDS011;40964;42.114;24.220;2023-08-20T08:58:30;10.10;;;6.10;;
55065;SDS011;40964;42.114;24.220;2023-08-20T09:00:57;9.55;;;5.93;;
55065;SDS011;40964;42.114;24.220;2023-08-20T09:03:23;7.97;;;5.05;;
55065;SDS011;40964;42.114;24.220;2023-08-20T09:05:56;12.18;;;5.50;;
55065;SDS011;40964;42.114;24.220;2023-08-20T09:08:27;9.23;;;5.82;;
55065;SDS011;40964;42.114;24.220;2023-08-20T09:10:54;7.18;;;5.38;;
55065;SDS011;40964;42.114;24.220;2023-08-20T09:13:24;8.00;;;4.95;;
55065;SDS011;40964;42.114;24.220;2023-08-20T09:16:05;5.47;;;4.47;;
55065;SDS011;40964;42.114;24.220;2023-08-20T09:18:38;5.88;;;4.65;;
55065;SDS011;40964;42.114;24.220;2023-08-20T09:21:09;6.30;;;4.22;;
55065;SDS011;40964;42.114;24.220;2023-08-20T09:23:36;5.85;;;4.63;;
55065;SDS011;40964;42.114;24.220;2023-08-20T09:26:02;7.07;;;4.50;;
55065;SDS011;40964;42.114;24.220;2023-08-20T09:28:29;7.20;;;3.97;;
55065;SDS011;40964;42.114;24.220;2023-08-20T09:31:05;6.78;;;4.20;;
55065;SDS011;40964;42.114;24.220;2023-08-20T09:33:30;6.88;;;4.20;;
55065;SDS011;40964;42.114;24.220;2023-08-20T09:35:56;6.63;;;4.60;;
55065;SDS011;40964;42.114;24.220;2023-08-20T09:38:22;9.85;;;4.28;;
55065;SDS011;40964;42.114;24.220;2023-08-20T09:40:49;4.45;;;3.92;;
55065;SDS011;40964;42.114;24.220;2023-08-20T09:43:17;8.10;;;4.18;;
55065;SDS011;40964;42.114;24.220;2023-08-20T09:45:43;6.43;;;4.22;;
55065;SDS011;40964;42.114;24.220;2023-08-20T09:48:11;5.93;;;3.83;;
55065;SDS011;40964;42.114;24.220;2023-08-20T09:50:42;9.77;;;3.88;;
55065;SDS011;40964;42.114;24.220;2023-08-20T09:53:19;9.80;;;4.30;;
55065;SDS011;40964;42.114;24.220;2023-08-20T09:56:15;4.95;;;3.70;;
55065;SDS011;40964;42.114;24.220;2023-08-20T09:58:49;5.30;;;3.55;;
55065;SDS011;40964;42.114;24.220;2023-08-20T10:01:15;5.68;;;3.95;;
55065;SDS011;40964;42.114;24.220;2023-08-20T10:03:41;5.05;;;4.00;;
55065;SDS011;40964;42.114;24.220;2023-08-20T10:06:08;5.15;;;3.78;;
55065;SDS011;40964;42.114;24.220;2023-08-20T10:08:34;6.00;;;3.78;;
55065;SDS011;40964;42.114;24.220;2023-08-20T10:11:01;4.22;;;3.53;;
55065;SDS011;40964;42.114;24.220;2023-08-20T10:13:27;5.30;;;3.70;;
55065;SDS011;40964;42.114;24.220;2023-08-20T10:15:53;4.97;;;3.63;;
55065;SDS011;40964;42.114;24.220;2023-08-20T10:18:20;5.47;;;4.10;;
55065;SDS011;40964;42.114;24.220;2023-08-20T10:20:49;4.57;;;3.53;;
55065;SDS011;40964;42.114;24.220;2023-08-20T10:23:17;4.55;;;3.88;;
55065;SDS011;40964;42.114;24.220;2023-08-20T10:25:46;5.28;;;3.85;;
55065;SDS011;40964;42.114;24.220;2023-08-20T10:38:42;5.00;;;4.20;;
55065;SDS011;40964;42.114;24.220;2023-08-20T10:41:11;4.75;;;3.80;;
55065;SDS011;40964;42.114;24.220;2023-08-20T10:43:45;6.68;;;4.10;;
55065;SDS011;40964;42.114;24.220;2023-08-20T10:48:47;5.55;;;3.78;;
55065;SDS011;40964;42.114;24.220;2023-08-20T10:51:15;5.75;;;4.45;;
55065;SDS011;40964;42.114;24.220;2023-08-20T10:54:04;8.38;;;3.97;;
55065;SDS011;40964;42.114;24.220;2023-08-20T10:56:45;8.82;;;4.32;;
55065;SDS011;40964;42.114;24.220;2023-08-20T10:59:25;6.60;;;4.05;;
55065;SDS011;40964;42.114;24.220;2023-08-20T11:01:52;6.85;;;4.13;;
55065;SDS011;40964;42.114;24.220;2023-08-20T11:04:20;5.43;;;3.95;;
55065;SDS011;40964;42.114;24.220;2023-08-20T11:06:49;5.20;;;4.10;;
55065;SDS011;40964;42.114;24.220;2023-08-20T11:09:17;4.70;;;3.95;;
55065;SDS011;40964;42.114;24.220;2023-08-20T11:11:43;5.13;;;4.00;;
55065;SDS011;40964;42.114;24.220;2023-08-20T11:14:12;5.43;;;3.70;;
55065;SDS011;40964;42.114;24.220;2023-08-20T11:16:39;4.45;;;3.70;;
55065;SDS011;40964;42.114;24.220;2023-08-20T11:19:05;6.53;;;4.45;;
55065;SDS011;40964;42.114;24.220;2023-08-20T11:21:41;5.10;;;4.10;;
55065;SDS011;40964;42.114;24.220;2023-08-20T11:24:07;4.32;;;3.90;;
55065;SDS011;40964;42.114;24.220;2023-08-20T11:26:34;7.47;;;4.20;;
55065;SDS011;40964;42.114;24.220;2023-08-20T11:29:00;5.10;;;3.60;;
55065;SDS011;40964;42.114;24.220;2023-08-20T11:31:32;5.32;;;3.92;;
55065;SDS011;40964;42.114;24.220;2023-08-20T11:33:58;6.25;;;4.32;;
55065;SDS011;40964;42.114;24.220;2023-08-20T11:36:24;6.60;;;4.10;;
55065;SDS011;40964;42.114;24.220;2023-08-20T11:38:50;4.93;;;4.18;;
55065;SDS011;40964;42.114;24.220;2023-08-20T11:41:19;4.60;;;4.05;;
55065;SDS011;40964;42.114;24.220;2023-08-20T11:43:46;5.68;;;4.15;;
55065;SDS011;40964;42.114;24.220;2023-08-20T11:46:13;5.57;;;3.70;;
55065;SDS011;40964;42.114;24.220;2023-08-20T11:48:57;4.72;;;4.03;;
55065;SDS011;40964;42.114;24.220;2023-08-20T11:51:42;6.38;;;3.70;;
55065;SDS011;40964;42.114;24.220;2023-08-20T11:54:12;5.32;;;3.92;;
55065;SDS011;40964;42.114;24.220;2023-08-20T11:56:42;4.05;;;3.65;;
55065;SDS011;40964;42.114;24.220;2023-08-20T11:59:12;4.55;;;3.85;;
55065;SDS011;40964;42.114;24.220;2023-08-20T12:01:39;4.85;;;3.72;;
55065;SDS011;40964;42.114;24.220;2023-08-20T12:04:05;5.57;;;3.88;;
55065;SDS011;40964;42.114;24.220;2023-08-20T12:06:32;6.65;;;3.78;;
55065;SDS011;40964;42.114;24.220;2023-08-20T12:08:59;6.55;;;4.70;;
55065;SDS011;40964;42.114;24.220;2023-08-20T12:11:29;3.85;;;3.25;;
55065;SDS011;40964;42.114;24.220;2023-08-20T12:13:55;4.72;;;3.53;;
55065;SDS011;40964;42.114;24.220;2023-08-20T12:16:21;8.77;;;3.60;;
55065;SDS011;40964;42.114;24.220;2023-08-20T12:18:48;5.85;;;4.03;;
55065;SDS011;40964;42.114;24.220;2023-08-20T12:21:14;3.83;;;3.33;;
55065;SDS011;40964;42.114;24.220;2023-08-20T12:23:40;3.97;;;3.58;;
55065;SDS011;40964;42.114;24.220;2023-08-20T12:26:06;8.07;;;4.18;;
55065;SDS011;40964;42.114;24.220;2023-08-20T12:28:32;4.13;;;3.50;;
55065;SDS011;40964;42.114;24.220;2023-08-20T12:30:58;4.63;;;3.75;;
55065;SDS011;40964;42.114;24.220;2023-08-20T12:33:24;4.40;;;3.20;;
55065;SDS011;40964;42.114;24.220;2023-08-20T12:35:50;5.32;;;3.45;;
55065;SDS011;40964;42.114;24.220;2023-08-20T12:38:15;4.03;;;3.38;;
55065;SDS011;40964;42.114;24.220;2023-08-20T12:40:41;5.00;;;3.50;;
55065;SDS011;40964;42.114;24.220;2023-08-20T12:43:06;7.85;;;3.88;;
55065;SDS011;40964;42.114;24.220;2023-08-20T12:48:19;4.40;;;3.60;;
55065;SDS011;40964;42.114;24.220;2023-08-20T12:50:45;5.80;;;3.90;;
55065;SDS011;40964;42.114;24.220;2023-08-20T12:53:11;8.50;;;3.72;;
55065;SDS011;40964;42.114;24.220;2023-08-20T12:55:38;5.57;;;3.65;;
55065;SDS011;40964;42.114;24.220;2023-08-20T12:58:03;3.97;;;3.58;;
55065;SDS011;40964;42.114;24.220;2023-08-20T13:00:29;5.10;;;3.50;;
55065;SDS011;40964;42.114;24.220;2023-08-20T13:02:54;4.13;;;3.45;;
55065;SDS011;40964;42.114;24.220;2023-08-20T13:05:22;4.68;;;3.65;;
55065;SDS011;40964;42.114;24.220;2023-08-20T13:07:48;6.57;;;3.40;;
55065;SDS011;40964;42.114;24.220;2023-08-20T13:10:14;5.78;;;3.60;;
55065;SDS011;40964;42.114;24.220;2023-08-20T13:12:46;3.28;;;2.83;;
55065;SDS011;40964;42.114;24.220;2023-08-20T13:15:15;5.18;;;3.75;;
55065;SDS011;40964;42.114;24.220;2023-08-20T13:17:42;4.78;;;3.63;;
55065;SDS011;40964;42.114;24.220;2023-08-20T13:20:07;4.20;;;3.75;;
55065;SDS011;40964;42.114;24.220;2023-08-20T13:22:33;4.38;;;3.65;;
55065;SDS011;40964;42.114;24.220;2023-08-20T13:24:59;3.88;;;3.42;;
55065;SDS011;40964;42.114;24.220;2023-08-20T13:27:24;3.88;;;3.45;;
55065;SDS011;40964;42.114;24.220;2023-08-20T13:29:50;7.15;;;3.70;;
55065;SDS011;40964;42.114;24.220;2023-08-20T13:32:16;3.53;;;3.22;;
55065;SDS011;40964;42.114;24.220;2023-08-20T13:34:41;3.95;;;3.22;;
55065;SDS011;40964;42.114;24.220;2023-08-20T13:37:06;6.85;;;3.88;;
55065;SDS011;40964;42.114;24.220;2023-08-20T13:39:32;7.90;;;3.97;;
55065;SDS011;40964;42.114;24.220;2023-08-20T13:41:57;4.72;;;3.72;;
55065;SDS011;40964;42.114;24.220;2023-08-20T13:44:23;5.65;;;3.78;;
55065;SDS011;40964;42.114;24.220;2023-08-20T13:46:48;6.78;;;3.53;;
55065;SDS011;40964;42.114;24.220;2023-08-20T13:49:13;3.90;;;3.47;;
55065;SDS011;40964;42.114;24.220;2023-08-20T13:51:39;4.93;;;3.92;;
55065;SDS011;40964;42.114;24.220;2023-08-20T13:54:05;3.63;;;3.33;;
55065;SDS011;40964;42.114;24.220;2023-08-20T13:56:30;4.28;;;3.50;;
55065;SDS011;40964;42.114;24.220;2023-08-20T13:58:55;4.72;;;3.83;;
55065;SDS011;40964;42.114;24.220;2023-08-20T14:01:21;4.90;;;3.80;;
55065;SDS011;40964;42.114;24.220;2023-08-20T14:03:47;5.25;;;3.60;;
55065;SDS011;40964;42.114;24.220;2023-08-20T14:06:12;6.20;;;3.80;;
55065;SDS011;40964;42.114;24.220;2023-08-20T14:08:38;4.18;;;3.50;;
55065;SDS011;40964;42.114;24.220;2023-08-20T14:11:04;5.50;;;3.55;;
55065;SDS011;40964;42.114;24.220;2023-08-20T14:13:29;3.53;;;3.15;;
55065;SDS011;40964;42.114;24.220;2023-08-20T14:15:55;5.18;;;3.85;;
55065;SDS011;40964;42.114;24.220;2023-08-20T14:18:20;4.53;;;3.60;;
55065;SDS011;40964;42.114;24.220;2023-08-20T14:20:46;4.72;;;3.58;;
55065;SDS011;40964;42.114;24.220;2023-08-20T14:23:12;4.63;;;3.60;;
55065;SDS011;40964;42.114;24.220;2023-08-20T14:25:37;4.97;;;3.85;;
55065;SDS011;40964;42.114;24.220;2023-08-20T14:28:05;4.88;;;3.38;;
55065;SDS011;40964;42.114;24.220;2023-08-20T14:30:32;4.68;;;3.58;;
55065;SDS011;40964;42.114;24.220;2023-08-20T14:33:01;7.18;;;3.55;;
55065;SDS011;40964;42.114;24.220;2023-08-20T14:35:27;6.57;;;3.75;;
55065;SDS011;40964;42.114;24.220;2023-08-20T14:37:53;4.97;;;3.35;;
55065;SDS011;40964;42.114;24.220;2023-08-20T14:40:19;4.68;;;3.33;;
55065;SDS011;40964;42.114;24.220;2023-08-20T14:42:44;3.95;;;3.47;;
55065;SDS011;40964;42.114;24.220;2023-08-20T14:45:10;5.38;;;3.92;;
55065;SDS011;40964;42.114;24.220;2023-08-20T14:47:35;5.32;;;3.10;;
55065;SDS011;40964;42.114;24.220;2023-08-20T14:50:01;5.65;;;3.10;;
55065;SDS011;40964;42.114;24.220;2023-08-20T14:52:27;7.18;;;3.53;;
55065;SDS011;40964;42.114;24.220;2023-08-20T14:54:52;8.43;;;3.53;;
55065;SDS011;40964;42.114;24.220;2023-08-20T14:57:18;6.97;;;3.58;;